Portada
METAR-TAF:

METAR-TAF

Aeroports :

Kunming, Xina

latitud: 25-01N, longitud: 102-41E, altitud: 1892 m

Observació

L'informe es va fer fa 54 minuts, a les 09:00 UTC
Vent 25 kt del Sud-Oest amb ràfegues de 35 kt
Temperatura 23°C
Humitat 25%
Pressió 1016 hPa
Visibilitat 10 km o més
Escasses núvols a una alçada de 2600 ft, Cumulus congestus.
Escasses núvols a una alçada de 2600 ft
Núvols disperses a una alçada de 4000 ft

METAR: ZPPP 020900Z 22013G18MPS 9999 FEW026TCU FEW026 SCT040 23/02 Q1016 NOSIG

Hora: 17:54 (09:54 UTC)

Pronòstic

L'informe es va fer fa 6 hores i 52 minuts, a les 03:02 UTC
Pronòstic vàlid del 02 a les 06 UTC al 03 a les 06 UTC
Vent 23 kt del Sud-Oest amb ràfegues de 33 kt
Visibilitat 10 km o més
Escasses núvols a una alçada de 2600 ft
Evolucionant progressivament
l' 02 a les 11 UTC al 02 a les 12 UTC
Vent 14 kt del Sud-Oest

TAF: ZPPP 020302Z 0206/0306 23012G17MPS 9999 FEW026 TX25/0208Z TN12/0223Z BECMG 0211/0212 23007MPS

Observacions i pronòstics meteorològics de més de 4000 aeroports (METAR i TAF).

Les estacions disponibles són els punts grocs i vermells al mapa.

Posi el ratolí al punt desitjat per veure el nom de l'estació.

Feu clic per veure les observacions i els pronòstics meteorològics.

Per canviar el mapa: feu clic els botons verds amb una creu de color negre per apropar; al botó verd amb un guió per allunyar la imatge; o en les fletxes verdes per a mapes adjacents.


METAR-TAF: